sensor_id;sensor_type;location;lat;lon;timestamp;temperature;humidity
3416;DHT22;1721;51.238;9.562;2023-04-08T00:00:33;4.50;91.50
3416;DHT22;1721;51.238;9.562;2023-04-08T00:03:00;4.50;91.50
3416;DHT22;1721;51.238;9.562;2023-04-08T00:05:25;4.60;91.60
3416;DHT22;1721;51.238;9.562;2023-04-08T00:07:51;4.60;91.60
3416;DHT22;1721;51.238;9.562;2023-04-08T00:10:16;4.60;91.60
3416;DHT22;1721;51.238;9.562;2023-04-08T00:12:42;4.70;91.70
3416;DHT22;1721;51.238;9.562;2023-04-08T00:15:08;4.70;91.70
3416;DHT22;1721;51.238;9.562;2023-04-08T00:17:33;4.80;91.80
3416;DHT22;1721;51.238;9.562;2023-04-08T00:19:59;4.80;91.70
3416;DHT22;1721;51.238;9.562;2023-04-08T00:22:25;4.90;91.80
3416;DHT22;1721;51.238;9.562;2023-04-08T00:24:50;4.90;91.80
3416;DHT22;1721;51.238;9.562;2023-04-08T00:27:16;5.00;91.80
3416;DHT22;1721;51.238;9.562;2023-04-08T00:29:41;5.10;91.90
3416;DHT22;1721;51.238;9.562;2023-04-08T00:32:07;5.10;91.80
3416;DHT22;1721;51.238;9.562;2023-04-08T00:34:32;5.10;91.80
3416;DHT22;1721;51.238;9.562;2023-04-08T00:36:58;4.90;91.90
3416;DHT22;1721;51.238;9.562;2023-04-08T00:39:24;4.80;92.30
3416;DHT22;1721;51.238;9.562;2023-04-08T00:41:49;4.90;92.30
3416;DHT22;1721;51.238;9.562;2023-04-08T00:44:15;5.00;92.10
3416;DHT22;1721;51.238;9.562;2023-04-08T00:46:41;5.10;92.00
3416;DHT22;1721;51.238;9.562;2023-04-08T00:49:07;5.00;92.10
3416;DHT22;1721;51.238;9.562;2023-04-08T00:51:33;5.10;92.30
3416;DHT22;1721;51.238;9.562;2023-04-08T00:54:01;5.20;92.30
3416;DHT22;1721;51.238;9.562;2023-04-08T00:56:29;5.30;92.10
3416;DHT22;1721;51.238;9.562;2023-04-08T00:58:56;5.40;92.10
3416;DHT22;1721;51.238;9.562;2023-04-08T01:01:36;5.50;92.00
3416;DHT22;1721;51.238;9.562;2023-04-08T01:06:40;5.30;92.00
3416;DHT22;1721;51.238;9.562;2023-04-08T01:09:11;5.50;92.10
3416;DHT22;1721;51.238;9.562;2023-04-08T01:11:44;5.60;92.10
3416;DHT22;1721;51.238;9.562;2023-04-08T01:14:13;5.70;91.90
3416;DHT22;1721;51.238;9.562;2023-04-08T01:16:41;5.80;91.90
3416;DHT22;1721;51.238;9.562;2023-04-08T01:19:09;5.90;91.80
3416;DHT22;1721;51.238;9.562;2023-04-08T01:21:40;5.90;91.90
3416;DHT22;1721;51.238;9.562;2023-04-08T01:24:15;6.00;92.00
3416;DHT22;1721;51.238;9.562;2023-04-08T01:26:42;6.00;92.00
3416;DHT22;1721;51.238;9.562;2023-04-08T01:29:10;6.00;92.00
3416;DHT22;1721;51.238;9.562;2023-04-08T01:31:38;6.10;92.00
3416;DHT22;1721;51.238;9.562;2023-04-08T01:34:05;6.20;91.90
3416;DHT22;1721;51.238;9.562;2023-04-08T01:36:31;6.20;91.80
3416;DHT22;1721;51.238;9.562;2023-04-08T01:38:59;6.00;92.00
3416;DHT22;1721;51.238;9.562;2023-04-08T01:41:27;6.00;92.20
3416;DHT22;1721;51.238;9.562;2023-04-08T01:43:53;6.10;92.10
3416;DHT22;1721;51.238;9.562;2023-04-08T01:46:19;6.20;92.10
3416;DHT22;1721;51.238;9.562;2023-04-08T01:48:46;6.30;92.00
3416;DHT22;1721;51.238;9.562;2023-04-08T01:51:14;6.40;91.90
3416;DHT22;1721;51.238;9.562;2023-04-08T01:53:40;6.50;91.90
3416;DHT22;1721;51.238;9.562;2023-04-08T01:56:10;6.60;91.90
3416;DHT22;1721;51.238;9.562;2023-04-08T01:58:40;6.60;91.90
3416;DHT22;1721;51.238;9.562;2023-04-08T02:01:10;6.60;91.90
3416;DHT22;1721;51.238;9.562;2023-04-08T02:03:37;6.70;91.90
3416;DHT22;1721;51.238;9.562;2023-04-08T02:06:03;6.80;92.00
3416;DHT22;1721;51.238;9.562;2023-04-08T02:08:29;6.80;92.00
3416;DHT22;1721;51.238;9.562;2023-04-08T02:10:55;6.90;92.10
3416;DHT22;1721;51.238;9.562;2023-04-08T02:13:20;6.90;92.10
3416;DHT22;1721;51.238;9.562;2023-04-08T02:15:51;7.00;92.20
3416;DHT22;1721;51.238;9.562;2023-04-08T02:18:24;7.00;92.10
3416;DHT22;1721;51.238;9.562;2023-04-08T02:21:13;7.00;92.30
3416;DHT22;1721;51.238;9.562;2023-04-08T02:23:41;6.90;91.90
3416;DHT22;1721;51.238;9.562;2023-04-08T02:26:12;6.90;92.10
3416;DHT22;1721;51.238;9.562;2023-04-08T02:28:39;6.90;92.00
3416;DHT22;1721;51.238;9.562;2023-04-08T02:31:10;7.00;91.80
3416;DHT22;1721;51.238;9.562;2023-04-08T02:33:40;7.10;91.80
3416;DHT22;1721;51.238;9.562;2023-04-08T02:36:07;7.20;91.70
3416;DHT22;1721;51.238;9.562;2023-04-08T02:38:33;7.20;91.50
3416;DHT22;1721;51.238;9.562;2023-04-08T02:40:58;7.20;91.60
3416;DHT22;1721;51.238;9.562;2023-04-08T02:43:24;7.20;91.70
3416;DHT22;1721;51.238;9.562;2023-04-08T02:45:57;7.20;91.90
3416;DHT22;1721;51.238;9.562;2023-04-08T02:48:24;7.20;91.90
3416;DHT22;1721;51.238;9.562;2023-04-08T02:50:50;7.30;92.00
3416;DHT22;1721;51.238;9.562;2023-04-08T02:53:16;7.40;92.00
3416;DHT22;1721;51.238;9.562;2023-04-08T02:55:41;7.40;92.10
3416;DHT22;1721;51.238;9.562;2023-04-08T02:58:07;7.40;92.10
3416;DHT22;1721;51.238;9.562;2023-04-08T03:00:32;7.50;92.10
3416;DHT22;1721;51.238;9.562;2023-04-08T03:02:58;7.50;92.10
3416;DHT22;1721;51.238;9.562;2023-04-08T03:05:25;7.50;92.10
3416;DHT22;1721;51.238;9.562;2023-04-08T03:07:50;7.50;92.00
3416;DHT22;1721;51.238;9.562;2023-04-08T03:10:16;7.40;92.30
3416;DHT22;1721;51.238;9.562;2023-04-08T03:12:41;7.30;92.00
3416;DHT22;1721;51.238;9.562;2023-04-08T03:15:07;7.40;92.10
3416;DHT22;1721;51.238;9.562;2023-04-08T03:17:33;7.50;91.90
3416;DHT22;1721;51.238;9.562;2023-04-08T03:19:59;7.40;91.90
3416;DHT22;1721;51.238;9.562;2023-04-08T03:22:25;7.40;92.10
3416;DHT22;1721;51.238;9.562;2023-04-08T03:24:51;7.50;92.00
3416;DHT22;1721;51.238;9.562;2023-04-08T03:27:16;7.50;91.80
3416;DHT22;1721;51.238;9.562;2023-04-08T03:29:42;7.50;91.90
3416;DHT22;1721;51.238;9.562;2023-04-08T03:32:07;7.60;92.00
3416;DHT22;1721;51.238;9.562;2023-04-08T03:34:36;7.70;92.00
3416;DHT22;1721;51.238;9.562;2023-04-08T03:37:01;7.70;92.00
3416;DHT22;1721;51.238;9.562;2023-04-08T03:39:27;7.70;92.00
3416;DHT22;1721;51.238;9.562;2023-04-08T03:41:53;7.70;92.10
3416;DHT22;1721;51.238;9.562;2023-04-08T03:44:18;7.70;92.10
3416;DHT22;1721;51.238;9.562;2023-04-08T03:46:44;7.80;92.10
3416;DHT22;1721;51.238;9.562;2023-04-08T03:49:09;7.80;92.10
3416;DHT22;1721;51.238;9.562;2023-04-08T03:51:35;7.80;92.00
3416;DHT22;1721;51.238;9.562;2023-04-08T03:54:00;7.90;91.90
3416;DHT22;1721;51.238;9.562;2023-04-08T03:56:26;7.90;91.70
3416;DHT22;1721;51.238;9.562;2023-04-08T03:58:51;7.90;91.40
3416;DHT22;1721;51.238;9.562;2023-04-08T04:01:17;7.90;90.70
3416;DHT22;1721;51.238;9.562;2023-04-08T04:03:43;8.00;90.50
3416;DHT22;1721;51.238;9.562;2023-04-08T04:06:08;7.90;90.30
3416;DHT22;1721;51.238;9.562;2023-04-08T04:08:34;7.90;90.30
3416;DHT22;1721;51.238;9.562;2023-04-08T04:11:00;8.00;90.10
3416;DHT22;1721;51.238;9.562;2023-04-08T04:13:25;7.90;90.00
3416;DHT22;1721;51.238;9.562;2023-04-08T04:15:51;7.90;90.00
3416;DHT22;1721;51.238;9.562;2023-04-08T04:18:16;7.90;89.90
3416;DHT22;1721;51.238;9.562;2023-04-08T04:20:42;7.90;90.00
3416;DHT22;1721;51.238;9.562;2023-04-08T04:23:08;7.90;89.60
3416;DHT22;1721;51.238;9.562;2023-04-08T04:25:34;7.80;90.00
3416;DHT22;1721;51.238;9.562;2023-04-08T04:28:00;7.80;89.70
3416;DHT22;1721;51.238;9.562;2023-04-08T04:30:27;7.80;90.00
3416;DHT22;1721;51.238;9.562;2023-04-08T04:32:52;7.80;90.10
3416;DHT22;1721;51.238;9.562;2023-04-08T04:35:18;7.80;90.20
3416;DHT22;1721;51.238;9.562;2023-04-08T04:37:43;7.80;90.30
3416;DHT22;1721;51.238;9.562;2023-04-08T04:40:10;7.80;90.30
3416;DHT22;1721;51.238;9.562;2023-04-08T04:42:35;7.90;90.30
3416;DHT22;1721;51.238;9.562;2023-04-08T04:45:01;7.90;90.30
3416;DHT22;1721;51.238;9.562;2023-04-08T04:47:26;8.00;90.30
3416;DHT22;1721;51.238;9.562;2023-04-08T04:49:52;8.00;90.20
3416;DHT22;1721;51.238;9.562;2023-04-08T04:52:17;8.00;90.20
3416;DHT22;1721;51.238;9.562;2023-04-08T04:54:43;8.00;90.30
3416;DHT22;1721;51.238;9.562;2023-04-08T04:57:08;8.00;90.20
3416;DHT22;1721;51.238;9.562;2023-04-08T04:59:35;8.00;90.20
3416;DHT22;1721;51.238;9.562;2023-04-08T05:02:01;8.00;90.30
3416;DHT22;1721;51.238;9.562;2023-04-08T05:04:27;8.10;90.30
3416;DHT22;1721;51.238;9.562;2023-04-08T05:06:52;8.10;90.30
3416;DHT22;1721;51.238;9.562;2023-04-08T05:09:18;8.20;90.20
3416;DHT22;1721;51.238;9.562;2023-04-08T05:11:43;8.10;90.00
3416;DHT22;1721;51.238;9.562;2023-04-08T05:14:09;8.20;90.10
3416;DHT22;1721;51.238;9.562;2023-04-08T05:16:35;8.20;90.20
3416;DHT22;1721;51.238;9.562;2023-04-08T05:19:00;8.20;90.20
3416;DHT22;1721;51.238;9.562;2023-04-08T05:21:26;8.20;90.20
3416;DHT22;1721;51.238;9.562;2023-04-08T05:23:52;8.20;90.20
3416;DHT22;1721;51.238;9.562;2023-04-08T05:26:22;8.20;90.20
3416;DHT22;1721;51.238;9.562;2023-04-08T05:28:48;8.20;90.30
3416;DHT22;1721;51.238;9.562;2023-04-08T05:31:15;8.10;90.40
3416;DHT22;1721;51.238;9.562;2023-04-08T05:33:41;8.20;90.40
3416;DHT22;1721;51.238;9.562;2023-04-08T05:36:07;8.20;90.40
3416;DHT22;1721;51.238;9.562;2023-04-08T05:38:32;8.20;90.50
3416;DHT22;1721;51.238;9.562;2023-04-08T05:40:58;8.20;90.60
3416;DHT22;1721;51.238;9.562;2023-04-08T05:43:23;8.20;90.60
3416;DHT22;1721;51.238;9.562;2023-04-08T05:45:49;8.30;90.60
3416;DHT22;1721;51.238;9.562;2023-04-08T05:48:15;8.30;90.60
3416;DHT22;1721;51.238;9.562;2023-04-08T05:50:41;8.30;90.60
3416;DHT22;1721;51.238;9.562;2023-04-08T05:53:08;8.30;90.60
3416;DHT22;1721;51.238;9.562;2023-04-08T05:55:34;8.30;90.70
3416;DHT22;1721;51.238;9.562;2023-04-08T05:58:00;8.30;90.70
3416;DHT22;1721;51.238;9.562;2023-04-08T06:00:25;8.40;90.70
3416;DHT22;1721;51.238;9.562;2023-04-08T06:02:51;8.30;90.80
3416;DHT22;1721;51.238;9.562;2023-04-08T06:05:16;8.40;90.90
3416;DHT22;1721;51.238;9.562;2023-04-08T06:07:43;8.40;90.90
3416;DHT22;1721;51.238;9.562;2023-04-08T06:10:09;8.40;90.80
3416;DHT22;1721;51.238;9.562;2023-04-08T06:12:35;8.40;90.80
3416;DHT22;1721;51.238;9.562;2023-04-08T06:15:03;8.40;90.90
3416;DHT22;1721;51.238;9.562;2023-04-08T06:17:28;8.50;90.90
3416;DHT22;1721;51.238;9.562;2023-04-08T06:19:54;8.50;90.90
3416;DHT22;1721;51.238;9.562;2023-04-08T06:22:20;8.50;90.90
3416;DHT22;1721;51.238;9.562;2023-04-08T06:24:48;8.40;91.00
3416;DHT22;1721;51.238;9.562;2023-04-08T06:27:15;8.30;91.20
3416;DHT22;1721;51.238;9.562;2023-04-08T06:29:40;8.40;91.30
3416;DHT22;1721;51.238;9.562;2023-04-08T06:32:06;8.40;91.40
3416;DHT22;1721;51.238;9.562;2023-04-08T06:34:31;8.30;91.60
3416;DHT22;1721;51.238;9.562;2023-04-08T06:36:57;8.40;91.70
3416;DHT22;1721;51.238;9.562;2023-04-08T06:39:23;8.30;91.70
3416;DHT22;1721;51.238;9.562;2023-04-08T06:41:48;8.40;91.60
3416;DHT22;1721;51.238;9.562;2023-04-08T06:44:14;8.20;92.00
3416;DHT22;1721;51.238;9.562;2023-04-08T06:46:40;8.10;92.10
3416;DHT22;1721;51.238;9.562;2023-04-08T06:49:05;8.00;92.50
3416;DHT22;1721;51.238;9.562;2023-04-08T06:51:31;8.10;92.50
3416;DHT22;1721;51.238;9.562;2023-04-08T06:53:57;8.00;92.80
3416;DHT22;1721;51.238;9.562;2023-04-08T06:56:22;7.80;92.90
3416;DHT22;1721;51.238;9.562;2023-04-08T06:58:50;7.90;93.00
3416;DHT22;1721;51.238;9.562;2023-04-08T07:01:16;7.90;93.20
3416;DHT22;1721;51.238;9.562;2023-04-08T07:03:42;8.00;93.30
3416;DHT22;1721;51.238;9.562;2023-04-08T07:06:07;8.00;93.40
3416;DHT22;1721;51.238;9.562;2023-04-08T07:08:33;8.00;93.50
3416;DHT22;1721;51.238;9.562;2023-04-08T07:10:58;8.10;93.30
3416;DHT22;1721;51.238;9.562;2023-04-08T07:13:24;8.10;93.30
3416;DHT22;1721;51.238;9.562;2023-04-08T07:15:50;8.00;93.40
3416;DHT22;1721;51.238;9.562;2023-04-08T07:18:16;8.00;93.60
3416;DHT22;1721;51.238;9.562;2023-04-08T07:20:42;8.00;93.70
3416;DHT22;1721;51.238;9.562;2023-04-08T07:23:07;8.10;93.70
3416;DHT22;1721;51.238;9.562;2023-04-08T07:25:33;8.10;93.90
3416;DHT22;1721;51.238;9.562;2023-04-08T07:28:01;8.00;94.00
3416;DHT22;1721;51.238;9.562;2023-04-08T07:30:27;8.10;94.30
3416;DHT22;1721;51.238;9.562;2023-04-08T07:32:52;8.20;94.30
3416;DHT22;1721;51.238;9.562;2023-04-08T07:35:20;8.20;94.20
3416;DHT22;1721;51.238;9.562;2023-04-08T07:37:49;8.30;94.20
3416;DHT22;1721;51.238;9.562;2023-04-08T07:40:15;8.30;94.30
3416;DHT22;1721;51.238;9.562;2023-04-08T07:42:41;8.50;94.50
3416;DHT22;1721;51.238;9.562;2023-04-08T07:45:07;8.60;94.40
3416;DHT22;1721;51.238;9.562;2023-04-08T07:47:32;8.70;94.40
3416;DHT22;1721;51.238;9.562;2023-04-08T07:49:58;8.90;94.10
3416;DHT22;1721;51.238;9.562;2023-04-08T07:52:24;9.00;94.00
3416;DHT22;1721;51.238;9.562;2023-04-08T07:54:50;9.00;93.90
3416;DHT22;1721;51.238;9.562;2023-04-08T07:57:16;9.00;93.90
3416;DHT22;1721;51.238;9.562;2023-04-08T07:59:41;8.90;93.70
3416;DHT22;1721;51.238;9.562;2023-04-08T08:02:07;8.90;94.00
3416;DHT22;1721;51.238;9.562;2023-04-08T08:04:32;8.90;94.10
3416;DHT22;1721;51.238;9.562;2023-04-08T08:06:58;8.90;93.80
3416;DHT22;1721;51.238;9.562;2023-04-08T08:09:24;8.70;93.80
3416;DHT22;1721;51.238;9.562;2023-04-08T08:11:49;8.60;94.30
3416;DHT22;1721;51.238;9.562;2023-04-08T08:14:15;8.50;94.70
3416;DHT22;1721;51.238;9.562;2023-04-08T08:16:40;8.60;94.50
3416;DHT22;1721;51.238;9.562;2023-04-08T08:19:07;8.60;94.30
3416;DHT22;1721;51.238;9.562;2023-04-08T08:21:36;8.60;94.50
3416;DHT22;1721;51.238;9.562;2023-04-08T08:24:01;8.60;94.70
3416;DHT22;1721;51.238;9.562;2023-04-08T08:26:27;8.70;94.70
3416;DHT22;1721;51.238;9.562;2023-04-08T08:28:53;8.90;94.50
3416;DHT22;1721;51.238;9.562;2023-04-08T08:31:19;8.90;94.40
3416;DHT22;1721;51.238;9.562;2023-04-08T08:33:44;8.90;94.40
3416;DHT22;1721;51.238;9.562;2023-04-08T08:36:11;9.00;94.40
3416;DHT22;1721;51.238;9.562;2023-04-08T08:38:36;9.20;94.20
3416;DHT22;1721;51.238;9.562;2023-04-08T08:41:02;9.20;94.40
3416;DHT22;1721;51.238;9.562;2023-04-08T08:43:29;9.30;94.10
3416;DHT22;1721;51.238;9.562;2023-04-08T08:45:58;9.30;94.10
3416;DHT22;1721;51.238;9.562;2023-04-08T08:48:24;9.50;94.20
3416;DHT22;1721;51.238;9.562;2023-04-08T08:50:50;9.50;93.80
3416;DHT22;1721;51.238;9.562;2023-04-08T08:53:16;9.40;93.70
3416;DHT22;1721;51.238;9.562;2023-04-08T08:55:41;9.10;93.90
3416;DHT22;1721;51.238;9.562;2023-04-08T08:58:07;9.00;94.50
3416;DHT22;1721;51.238;9.562;2023-04-08T09:00:38;9.00;94.30
3416;DHT22;1721;51.238;9.562;2023-04-08T09:03:22;9.00;94.30
3416;DHT22;1721;51.238;9.562;2023-04-08T09:05:56;9.10;94.40
3416;DHT22;1721;51.238;9.562;2023-04-08T09:10:49;9.10;94.50
3416;DHT22;1721;51.238;9.562;2023-04-08T09:13:15;9.00;94.70
3416;DHT22;1721;51.238;9.562;2023-04-08T09:18:25;9.20;94.70
3416;DHT22;1721;51.238;9.562;2023-04-08T09:20:52;9.20;94.50
3416;DHT22;1721;51.238;9.562;2023-04-08T09:23:18;9.30;94.30
3416;DHT22;1721;51.238;9.562;2023-04-08T09:25:43;9.30;94.30
3416;DHT22;1721;51.238;9.562;2023-04-08T09:28:18;9.40;94.20
3416;DHT22;1721;51.238;9.562;2023-04-08T09:30:47;9.20;94.80
3416;DHT22;1721;51.238;9.562;2023-04-08T09:33:13;9.30;94.40
3416;DHT22;1721;51.238;9.562;2023-04-08T09:35:38;9.40;94.40
3416;DHT22;1721;51.238;9.562;2023-04-08T09:38:04;9.30;94.60
3416;DHT22;1721;51.238;9.562;2023-04-08T09:40:33;9.30;94.70
3416;DHT22;1721;51.238;9.562;2023-04-08T09:43:03;9.50;94.70
3416;DHT22;1721;51.238;9.562;2023-04-08T09:45:31;9.50;94.30
3416;DHT22;1721;51.238;9.562;2023-04-08T09:48:10;9.30;94.20
3416;DHT22;1721;51.238;9.562;2023-04-08T09:50:42;9.40;94.50
3416;DHT22;1721;51.238;9.562;2023-04-08T09:53:19;9.20;94.60
3416;DHT22;1721;51.238;9.562;2023-04-08T09:55:54;9.20;94.90
3416;DHT22;1721;51.238;9.562;2023-04-08T09:58:27;9.30;94.80
3416;DHT22;1721;51.238;9.562;2023-04-08T10:00:54;9.40;94.50
3416;DHT22;1721;51.238;9.562;2023-04-08T10:03:28;9.40;94.50
3416;DHT22;1721;51.238;9.562;2023-04-08T10:05:55;9.40;94.80
3416;DHT22;1721;51.238;9.562;2023-04-08T10:08:23;9.60;94.90
3416;DHT22;1721;51.238;9.562;2023-04-08T10:10:49;9.80;94.40
3416;DHT22;1721;51.238;9.562;2023-04-08T10:13:15;9.90;94.40
3416;DHT22;1721;51.238;9.562;2023-04-08T10:15:41;10.00;93.70
3416;DHT22;1721;51.238;9.562;2023-04-08T10:23:04;9.90;94.30
3416;DHT22;1721;51.238;9.562;2023-04-08T10:25:38;10.00;93.70
3416;DHT22;1721;51.238;9.562;2023-04-08T10:30:54;10.00;93.60
3416;DHT22;1721;51.238;9.562;2023-04-08T10:35:54;10.10;93.40
3416;DHT22;1721;51.238;9.562;2023-04-08T10:38:20;10.20;93.50
3416;DHT22;1721;51.238;9.562;2023-04-08T10:40:47;10.30;93.40
3416;DHT22;1721;51.238;9.562;2023-04-08T10:43:15;10.30;93.30
3416;DHT22;1721;51.238;9.562;2023-04-08T10:45:41;10.30;93.60
3416;DHT22;1721;51.238;9.562;2023-04-08T10:48:25;10.30;93.20
3416;DHT22;1721;51.238;9.562;2023-04-08T10:51:00;10.10;93.20
3416;DHT22;1721;51.238;9.562;2023-04-08T10:53:32;10.10;93.50
3416;DHT22;1721;51.238;9.562;2023-04-08T10:56:08;10.10;93.50
3416;DHT22;1721;51.238;9.562;2023-04-08T10:58:34;9.90;94.30
3416;DHT22;1721;51.238;9.562;2023-04-08T11:01:05;9.90;94.30
3416;DHT22;1721;51.238;9.562;2023-04-08T11:03:32;10.00;93.90
3416;DHT22;1721;51.238;9.562;2023-04-08T11:05:59;10.00;93.60
3416;DHT22;1721;51.238;9.562;2023-04-08T11:08:29;9.70;94.40
3416;DHT22;1721;51.238;9.562;2023-04-08T11:10:55;9.70;94.60
3416;DHT22;1721;51.238;9.562;2023-04-08T11:13:21;9.90;94.70
3416;DHT22;1721;51.238;9.562;2023-04-08T11:15:48;10.10;94.20
3416;DHT22;1721;51.238;9.562;2023-04-08T11:18:14;10.20;93.50
3416;DHT22;1721;51.238;9.562;2023-04-08T11:20:43;10.10;93.60
3416;DHT22;1721;51.238;9.562;2023-04-08T11:23:13;10.10;94.00
3416;DHT22;1721;51.238;9.562;2023-04-08T11:25:43;10.10;93.80
3416;DHT22;1721;51.238;9.562;2023-04-08T11:28:10;10.10;94.00
3416;DHT22;1721;51.238;9.562;2023-04-08T11:30:38;10.10;93.90
3416;DHT22;1721;51.238;9.562;2023-04-08T11:33:03;10.30;93.90
3416;DHT22;1721;51.238;9.562;2023-04-08T11:35:29;10.50;93.90
3416;DHT22;1721;51.238;9.562;2023-04-08T11:37:56;10.80;94.00
3416;DHT22;1721;51.238;9.562;2023-04-08T11:40:22;11.00;93.60
3416;DHT22;1721;51.238;9.562;2023-04-08T11:42:49;11.20;93.20
3416;DHT22;1721;51.238;9.562;2023-04-08T11:45:16;11.60;93.00
3416;DHT22;1721;51.238;9.562;2023-04-08T11:47:44;11.90;92.50
3416;DHT22;1721;51.238;9.562;2023-04-08T11:50:11;12.10;92.40
3416;DHT22;1721;51.238;9.562;2023-04-08T11:55:25;12.60;91.20
3416;DHT22;1721;51.238;9.562;2023-04-08T11:57:51;12.90;91.00
3416;DHT22;1721;51.238;9.562;2023-04-08T12:00:18;13.00;90.60
3416;DHT22;1721;51.238;9.562;2023-04-08T12:02:44;13.10;90.70
3416;DHT22;1721;51.238;9.562;2023-04-08T12:05:11;13.10;90.40
3416;DHT22;1721;51.238;9.562;2023-04-08T12:07:36;13.20;90.30
3416;DHT22;1721;51.238;9.562;2023-04-08T12:10:02;13.40;90.60
3416;DHT22;1721;51.238;9.562;2023-04-08T12:12:28;13.30;90.10
3416;DHT22;1721;51.238;9.562;2023-04-08T12:14:53;13.10;90.10
3416;DHT22;1721;51.238;9.562;2023-04-08T12:17:19;13.20;90.20
3416;DHT22;1721;51.238;9.562;2023-04-08T12:19:44;13.10;90.30
3416;DHT22;1721;51.238;9.562;2023-04-08T12:22:10;13.40;90.30
3416;DHT22;1721;51.238;9.562;2023-04-08T12:24:35;13.40;89.20
3416;DHT22;1721;51.238;9.562;2023-04-08T12:27:01;13.30;89.40
3416;DHT22;1721;51.238;9.562;2023-04-08T12:29:29;13.00;90.30
3416;DHT22;1721;51.238;9.562;2023-04-08T12:31:54;12.80;90.30
3416;DHT22;1721;51.238;9.562;2023-04-08T12:34:20;12.70;90.70
3416;DHT22;1721;51.238;9.562;2023-04-08T12:36:45;12.70;90.80
3416;DHT22;1721;51.238;9.562;2023-04-08T12:39:12;12.70;90.60
3416;DHT22;1721;51.238;9.562;2023-04-08T12:41:37;12.60;90.80
3416;DHT22;1721;51.238;9.562;2023-04-08T12:44:03;12.60;91.00
3416;DHT22;1721;51.238;9.562;2023-04-08T12:46:28;12.70;90.80
3416;DHT22;1721;51.238;9.562;2023-04-08T12:48:54;12.80;90.90
3416;DHT22;1721;51.238;9.562;2023-04-08T12:51:19;12.80;90.70
3416;DHT22;1721;51.238;9.562;2023-04-08T12:53:45;12.70;90.90
3416;DHT22;1721;51.238;9.562;2023-04-08T12:56:10;12.70;90.90
3416;DHT22;1721;51.238;9.562;2023-04-08T12:58:36;12.80;90.80
3416;DHT22;1721;51.238;9.562;2023-04-08T13:01:02;12.70;90.90
3416;DHT22;1721;51.238;9.562;2023-04-08T13:03:27;12.90;90.90
3416;DHT22;1721;51.238;9.562;2023-04-08T13:05:56;13.10;90.80
3416;DHT22;1721;51.238;9.562;2023-04-08T13:08:23;12.80;91.00
3416;DHT22;1721;51.238;9.562;2023-04-08T13:10:49;13.00;90.50
3416;DHT22;1721;51.238;9.562;2023-04-08T13:13:14;13.10;90.40
3416;DHT22;1721;51.238;9.562;2023-04-08T13:15:40;13.00;90.50
3416;DHT22;1721;51.238;9.562;2023-04-08T13:18:06;12.70;90.90
3416;DHT22;1721;51.238;9.562;2023-04-08T13:20:32;12.90;90.70
3416;DHT22;1721;51.238;9.562;2023-04-08T13:22:57;13.00;90.70
3416;DHT22;1721;51.238;9.562;2023-04-08T13:25:24;13.10;90.60
3416;DHT22;1721;51.238;9.562;2023-04-08T13:27:50;13.30;90.30
3416;DHT22;1721;51.238;9.562;2023-04-08T13:30:16;13.40;90.30
3416;DHT22;1721;51.238;9.562;2023-04-08T13:32:41;13.60;89.90
3416;DHT22;1721;51.238;9.562;2023-04-08T13:35:07;13.30;89.50
3416;DHT22;1721;51.238;9.562;2023-04-08T13:37:33;13.40;89.90
3416;DHT22;1721;51.238;9.562;2023-04-08T13:39:58;13.20;89.40
3416;DHT22;1721;51.238;9.562;2023-04-08T13:42:24;13.00;89.50
3416;DHT22;1721;51.238;9.562;2023-04-08T13:44:49;12.90;90.10
3416;DHT22;1721;51.238;9.562;2023-04-08T13:47:15;13.10;90.10
3416;DHT22;1721;51.238;9.562;2023-04-08T13:49:41;13.10;90.00
3416;DHT22;1721;51.238;9.562;2023-04-08T13:52:07;13.10;89.80
3416;DHT22;1721;51.238;9.562;2023-04-08T13:54:32;13.10;89.00
3416;DHT22;1721;51.238;9.562;2023-04-08T13:56:58;13.20;89.10
3416;DHT22;1721;51.238;9.562;2023-04-08T13:59:23;13.20;87.60
3416;DHT22;1721;51.238;9.562;2023-04-08T14:01:49;12.90;87.10
3416;DHT22;1721;51.238;9.562;2023-04-08T14:04:19;12.80;87.40
3416;DHT22;1721;51.238;9.562;2023-04-08T14:06:45;12.90;87.50
3416;DHT22;1721;51.238;9.562;2023-04-08T14:09:10;12.70;88.60
3416;DHT22;1721;51.238;9.562;2023-04-08T14:11:37;12.50;90.00
3416;DHT22;1721;51.238;9.562;2023-04-08T14:14:02;12.30;90.90
3416;DHT22;1721;51.238;9.562;2023-04-08T14:16:28;12.40;91.20
3416;DHT22;1721;51.238;9.562;2023-04-08T14:18:55;12.50;90.90
3416;DHT22;1721;51.238;9.562;2023-04-08T14:21:21;12.70;90.60
3416;DHT22;1721;51.238;9.562;2023-04-08T14:23:50;12.90;90.00
3416;DHT22;1721;51.238;9.562;2023-04-08T14:26:15;12.90;90.00
3416;DHT22;1721;51.238;9.562;2023-04-08T14:28:41;13.00;89.20
3416;DHT22;1721;51.238;9.562;2023-04-08T14:31:06;13.00;89.30
3416;DHT22;1721;51.238;9.562;2023-04-08T14:33:32;13.20;88.80
3416;DHT22;1721;51.238;9.562;2023-04-08T14:35:57;13.40;87.90
3416;DHT22;1721;51.238;9.562;2023-04-08T14:38:24;13.60;88.20
3416;DHT22;1721;51.238;9.562;2023-04-08T14:40:50;13.70;88.00
3416;DHT22;1721;51.238;9.562;2023-04-08T14:43:15;13.90;86.90
3416;DHT22;1721;51.238;9.562;2023-04-08T14:45:41;13.90;86.50
3416;DHT22;1721;51.238;9.562;2023-04-08T14:48:07;13.60;87.60
3416;DHT22;1721;51.238;9.562;2023-04-08T14:50:32;13.50;87.30
3416;DHT22;1721;51.238;9.562;2023-04-08T14:52:58;13.40;86.50
3416;DHT22;1721;51.238;9.562;2023-04-08T14:55:23;13.30;87.60
3416;DHT22;1721;51.238;9.562;2023-04-08T14:57:50;13.30;88.10
3416;DHT22;1721;51.238;9.562;2023-04-08T15:00:15;13.00;88.70
3416;DHT22;1721;51.238;9.562;2023-04-08T15:02:41;12.80;89.50
3416;DHT22;1721;51.238;9.562;2023-04-08T15:05:07;12.90;89.40
3416;DHT22;1721;51.238;9.562;2023-04-08T15:07:32;13.00;89.50
3416;DHT22;1721;51.238;9.562;2023-04-08T15:09:58;13.00;88.70
3416;DHT22;1721;51.238;9.562;2023-04-08T15:12:24;12.90;87.70
3416;DHT22;1721;51.238;9.562;2023-04-08T15:14:49;13.20;87.50
3416;DHT22;1721;51.238;9.562;2023-04-08T15:17:15;13.20;86.90
3416;DHT22;1721;51.238;9.562;2023-04-08T15:19:41;13.40;86.80
3416;DHT22;1721;51.238;9.562;2023-04-08T15:22:07;13.30;86.20
3416;DHT22;1721;51.238;9.562;2023-04-08T15:24:32;13.00;86.30
3416;DHT22;1721;51.238;9.562;2023-04-08T15:26:58;12.60;87.70
3416;DHT22;1721;51.238;9.562;2023-04-08T15:29:23;12.50;88.20
3416;DHT22;1721;51.238;9.562;2023-04-08T15:31:50;12.60;87.70
3416;DHT22;1721;51.238;9.562;2023-04-08T15:34:15;12.60;87.40
3416;DHT22;1721;51.238;9.562;2023-04-08T15:36:41;12.60;87.60
3416;DHT22;1721;51.238;9.562;2023-04-08T15:39:06;12.50;88.10
3416;DHT22;1721;51.238;9.562;2023-04-08T15:41:32;12.70;87.80
3416;DHT22;1721;51.238;9.562;2023-04-08T15:43:57;12.30;88.80
3416;DHT22;1721;51.238;9.562;2023-04-08T15:46:23;12.20;88.70
3416;DHT22;1721;51.238;9.562;2023-04-08T15:48:49;12.20;89.00
3416;DHT22;1721;51.238;9.562;2023-04-08T15:51:15;12.30;88.90
3416;DHT22;1721;51.238;9.562;2023-04-08T15:53:41;12.40;89.10
3416;DHT22;1721;51.238;9.562;2023-04-08T15:56:14;12.30;89.00
3416;DHT22;1721;51.238;9.562;2023-04-08T15:58:40;12.00;90.00
3416;DHT22;1721;51.238;9.562;2023-04-08T16:01:06;11.90;90.10
3416;DHT22;1721;51.238;9.562;2023-04-08T16:03:32;11.90;90.30
3416;DHT22;1721;51.238;9.562;2023-04-08T16:05:58;11.80;90.60
3416;DHT22;1721;51.238;9.562;2023-04-08T16:08:23;11.80;90.70
3416;DHT22;1721;51.238;9.562;2023-04-08T16:10:49;11.80;90.70
3416;DHT22;1721;51.238;9.562;2023-04-08T16:13:15;11.70;90.80
3416;DHT22;1721;51.238;9.562;2023-04-08T16:15:41;11.70;90.90
3416;DHT22;1721;51.238;9.562;2023-04-08T16:18:07;11.70;91.00
3416;DHT22;1721;51.238;9.562;2023-04-08T16:20:36;11.70;91.00
3416;DHT22;1721;51.238;9.562;2023-04-08T16:23:01;11.70;91.10
3416;DHT22;1721;51.238;9.562;2023-04-08T16:25:27;11.80;91.00
3416;DHT22;1721;51.238;9.562;2023-04-08T16:27:52;11.60;91.10